Time;durP1;ratioP1;P1;durP2;ratioP2;P2;SDS_P1;SDS_P2;PMS_P1;PMS_P2;Temp;Humidity;BMP_temperature;BMP_pressure;BME280_temperature;BME280_humidity;BME280_pressure;Samples;Min_cycle;Max_cycle;Signal;HPM_P1;HPM_P2
2024/02/17 00:00:04;;;;;;;28.15;24.55;;;12.90;99.90;;;;;;2077732;28;20041;-66
2024/02/17 00:01:05;;;;;;;28.98;25.92;;;12.90;99.90;;;;;;2073846;28;20026;-67
2024/02/17 00:02:05;;;;;;;28.98;25.98;;;12.90;99.90;;;;;;2072344;28;20106;-66
2024/02/17 00:03:06;;;;;;;31.25;27.92;;;12.90;99.90;;;;;;2072059;28;20092;-66
2024/02/17 00:04:07;;;;;;;29.05;25.10;;;12.90;99.90;;;;;;2078227;28;20045;-66
2024/02/17 00:05:08;;;;;;;30.08;26.83;;;12.90;99.90;;;;;;2079026;28;20120;-66
2024/02/17 00:06:08;;;;;;;30.15;24.45;;;12.90;99.90;;;;;;2075478;28;20034;-66
2024/02/17 00:07:09;;;;;;;32.20;24.95;;;12.90;99.90;;;;;;2075997;28;20108;-67
2024/02/17 00:08:09;;;;;;;25.83;23.00;;;12.90;99.90;;;;;;2076150;28;20101;-67
2024/02/17 00:09:10;;;;;;;28.90;24.30;;;12.90;99.90;;;;;;2075147;28;20137;-66
2024/02/17 00:10:10;;;;;;;26.00;23.20;;;12.90;99.90;;;;;;2077937;28;20478;-66
2024/02/17 00:11:11;;;;;;;29.70;23.80;;;12.90;99.90;;;;;;2076433;28;20378;-67
2024/02/17 00:12:11;;;;;;;25.73;22.27;;;12.90;99.90;;;;;;2076529;28;20018;-66
2024/02/17 00:13:12;;;;;;;26.35;23.55;;;12.90;99.90;;;;;;2077228;28;20037;-67
2024/02/17 00:14:12;;;;;;;26.52;23.17;;;12.90;99.90;;;;;;2076042;28;20395;-66
2024/02/17 00:15:13;;;;;;;27.00;23.33;;;12.90;99.90;;;;;;2075078;28;20034;-65
2024/02/17 00:16:14;;;;;;;26.65;22.70;;;12.90;99.90;;;;;;2075411;28;20025;-66
2024/02/17 00:17:14;;;;;;;25.50;22.42;;;12.80;99.90;;;;;;2076851;28;20546;-66
2024/02/17 00:18:15;;;;;;;28.20;22.65;;;12.80;99.90;;;;;;2076140;28;20026;-66
2024/02/17 00:19:15;;;;;;;28.08;24.23;;;12.90;99.90;;;;;;2078521;28;20026;-67
2024/02/17 00:20:17;;;;;;;27.20;23.15;;;12.80;99.90;;;;;;2074519;28;20482;-66
2024/02/17 00:21:18;;;;;;;27.98;23.83;;;12.80;99.90;;;;;;2076135;28;20548;-67
2024/02/17 00:22:18;;;;;;;27.83;24.48;;;12.80;99.90;;;;;;2076393;28;20022;-67
2024/02/17 00:23:19;;;;;;;28.27;24.20;;;12.80;99.90;;;;;;2074504;28;20071;-66
2024/02/17 00:24:19;;;;;;;28.77;24.88;;;12.90;99.90;;;;;;2077099;28;20037;-66
2024/02/17 00:25:20;;;;;;;27.63;23.98;;;12.80;99.90;;;;;;2076376;28;20044;-67
2024/02/17 00:26:20;;;;;;;32.97;25.60;;;12.80;99.90;;;;;;2076733;28;20084;-66
2024/02/17 00:27:21;;;;;;;27.90;25.00;;;12.80;99.90;;;;;;2077333;28;20108;-67
2024/02/17 00:28:26;;;;;;;29.05;24.55;;;12.80;99.90;;;;;;2076420;28;20021;-66
2024/02/17 00:29:26;;;;;;;30.70;25.23;;;12.80;99.90;;;;;;2075134;28;20041;-66
2024/02/17 00:30:27;;;;;;;30.95;25.80;;;12.80;99.90;;;;;;2078406;28;20112;-67
2024/02/17 00:31:27;;;;;;;25.77;22.95;;;12.80;99.90;;;;;;2075197;28;20084;-66
2024/02/17 00:32:28;;;;;;;30.92;23.63;;;12.80;99.90;;;;;;2074953;28;20473;-66
2024/02/17 00:33:28;;;;;;;28.20;24.15;;;12.80;99.90;;;;;;2076917;28;20028;-66
2024/02/17 00:34:30;;;;;;;30.45;24.77;;;12.80;99.90;;;;;;2074889;28;20057;-66
2024/02/17 00:35:30;;;;;;;27.60;24.50;;;12.80;99.90;;;;;;2077292;28;20060;-67
2024/02/17 00:36:31;;;;;;;26.52;22.95;;;12.80;99.90;;;;;;2074045;28;20037;-66
2024/02/17 00:37:32;;;;;;;26.17;23.48;;;12.80;99.90;;;;;;2076366;28;20425;-66
2024/02/17 00:38:32;;;;;;;27.30;24.05;;;12.80;99.90;;;;;;2075753;28;20025;-66
2024/02/17 00:39:33;;;;;;;33.08;25.52;;;12.80;99.90;;;;;;2076776;28;20018;-66
2024/02/17 00:40:33;;;;;;;27.17;24.27;;;12.80;99.90;;;;;;2073317;28;20029;-66
2024/02/17 00:41:34;;;;;;;27.55;24.65;;;12.80;99.90;;;;;;2074810;28;20088;-66
2024/02/17 00:42:35;;;;;;;29.33;24.75;;;12.80;99.90;;;;;;2076171;28;20124;-66
2024/02/17 00:43:36;;;;;;;30.00;24.38;;;12.80;99.90;;;;;;2075635;28;20026;-66
2024/02/17 00:44:37;;;;;;;27.35;24.42;;;12.80;99.90;;;;;;2075662;28;20038;-68
2024/02/17 00:45:37;;;;;;;30.55;25.42;;;12.80;99.90;;;;;;2075362;28;20033;-66
2024/02/17 00:46:38;;;;;;;29.33;25.63;;;12.80;99.90;;;;;;2075518;28;20520;-66
2024/02/17 00:47:38;;;;;;;34.28;26.23;;;12.80;99.90;;;;;;2071717;28;20458;-66
2024/02/17 00:48:39;;;;;;;26.90;24.00;;;12.80;99.90;;;;;;2070000;28;20037;-66
2024/02/17 00:49:40;;;;;;;29.55;25.85;;;12.80;99.90;;;;;;2075794;28;20120;-67
2024/02/17 00:50:40;;;;;;;29.27;25.33;;;12.80;99.90;;;;;;2076716;28;20065;-67
2024/02/17 00:51:41;;;;;;;28.77;25.73;;;12.80;99.90;;;;;;2076561;28;20105;-66
2024/02/17 00:52:41;;;;;;;29.58;24.08;;;12.80;99.90;;;;;;2074663;28;20585;-66
2024/02/17 00:53:42;;;;;;;29.58;25.25;;;12.80;99.90;;;;;;2076216;28;20033;-66
2024/02/17 00:54:43;;;;;;;29.92;25.55;;;12.80;99.90;;;;;;2076931;28;20026;-66
2024/02/17 00:55:44;;;;;;;27.05;23.95;;;12.80;99.90;;;;;;2075488;28;20677;-67
2024/02/17 00:56:44;;;;;;;36.42;25.15;;;12.80;99.90;;;;;;2075581;28;20030;-66
2024/02/17 00:57:45;;;;;;;32.15;26.70;;;12.80;99.90;;;;;;2076258;28;20022;-66
2024/02/17 00:58:45;;;;;;;30.63;25.42;;;12.80;99.90;;;;;;2076036;28;20125;-66
2024/02/17 00:59:46;;;;;;;31.52;25.58;;;12.80;99.90;;;;;;2073960;28;20113;-66
2024/02/17 01:00:46;;;;;;;30.88;25.50;;;12.80;99.90;;;;;;2076862;28;20048;-68
2024/02/17 01:01:47;;;;;;;30.17;25.70;;;12.80;99.90;;;;;;2078108;28;20025;-66
2024/02/17 01:02:47;;;;;;;31.20;25.15;;;12.80;99.90;;;;;;2073723;28;20037;-66
2024/02/17 01:03:48;;;;;;;32.60;27.25;;;12.80;99.90;;;;;;2077275;28;20033;-67
2024/02/17 01:04:48;;;;;;;30.08;25.15;;;12.70;99.90;;;;;;2072728;28;20048;-66
2024/02/17 01:05:49;;;;;;;32.15;26.38;;;12.70;99.90;;;;;;2075961;28;20038;-67
2024/02/17 01:06:50;;;;;;;32.80;26.23;;;12.80;99.90;;;;;;2076621;28;20034;-66
2024/02/17 01:07:50;;;;;;;34.65;27.00;;;12.80;99.90;;;;;;2077658;28;20048;-66
2024/02/17 01:08:51;;;;;;;34.50;27.52;;;12.80;99.90;;;;;;2077072;28;20108;-66
2024/02/17 01:09:54;;;;;;;35.63;27.77;;;12.80;99.90;;;;;;2076020;28;20037;-65
2024/02/17 01:10:55;;;;;;;34.33;27.77;;;12.80;99.90;;;;;;2076631;28;20527;-66
2024/02/17 01:11:58;;;;;;;32.80;26.92;;;12.80;99.90;;;;;;2075230;28;20124;-66
2024/02/17 01:12:58;;;;;;;33.45;25.90;;;12.80;99.90;;;;;;2075205;28;20022;-66
2024/02/17 01:13:59;;;;;;;31.67;27.40;;;12.80;99.90;;;;;;2076096;28;20026;-67
2024/02/17 01:14:59;;;;;;;34.85;28.02;;;12.80;99.90;;;;;;2073769;28;20064;-66
2024/02/17 01:16:01;;;;;;;38.25;29.17;;;12.80;99.90;;;;;;2077266;28;20034;-66
2024/02/17 01:17:01;;;;;;;35.47;28.73;;;12.80;99.90;;;;;;2074605;28;20371;-67
2024/02/17 01:18:02;;;;;;;41.33;29.45;;;12.80;99.90;;;;;;2076252;28;20753;-68
2024/02/17 01:19:03;;;;;;;37.10;29.17;;;12.80;99.90;;;;;;2074926;28;20030;-66
2024/02/17 01:20:04;;;;;;;37.17;30.10;;;12.80;99.90;;;;;;2075856;28;20117;-66
2024/02/17 01:21:04;;;;;;;42.70;30.80;;;12.70;99.90;;;;;;2076318;28;20026;-66
2024/02/17 01:22:05;;;;;;;37.80;28.77;;;12.70;99.90;;;;;;2075444;28;20458;-66
2024/02/17 01:23:05;;;;;;;38.50;28.83;;;12.70;99.90;;;;;;2075104;28;20041;-66
2024/02/17 01:24:09;;;;;;;39.35;29.77;;;12.70;99.90;;;;;;2075007;28;20018;-65
2024/02/17 01:25:09;;;;;;;36.67;29.65;;;12.70;99.90;;;;;;2075480;28;20025;-66
2024/02/17 01:26:10;;;;;;;37.50;30.50;;;12.70;99.90;;;;;;2075908;28;20037;-66
2024/02/17 01:27:10;;;;;;;41.58;29.35;;;12.70;99.90;;;;;;2076706;28;20050;-67
2024/02/17 01:28:11;;;;;;;36.95;28.90;;;12.70;99.90;;;;;;2075730;28;20125;-67
2024/02/17 01:29:18;;;;;;;39.05;29.83;;;12.70;99.90;;;;;;2077031;28;20037;-66
2024/02/17 01:30:19;;;;;;;39.20;27.90;;;12.70;99.90;;;;;;2071175;28;20046;-66
2024/02/17 01:31:19;;;;;;;36.30;28.05;;;12.60;99.90;;;;;;2069429;28;20034;-66
2024/02/17 01:32:20;;;;;;;41.08;29.55;;;12.70;99.90;;;;;;2073772;28;20025;-67
2024/02/17 01:33:20;;;;;;;36.70;28.55;;;12.60;99.90;;;;;;2076323;28;20034;-66
2024/02/17 01:34:21;;;;;;;43.55;29.52;;;12.60;99.90;;;;;;2074919;28;20084;-66
2024/02/17 01:35:21;;;;;;;37.88;27.25;;;12.60;99.90;;;;;;2076044;28;20500;-66
2024/02/17 01:36:22;;;;;;;36.35;26.80;;;12.60;99.90;;;;;;2074839;28;20044;-66
2024/02/17 01:37:22;;;;;;;39.13;27.88;;;12.60;99.90;;;;;;2074873;28;20025;-66
2024/02/17 01:38:23;;;;;;;37.72;28.65;;;12.60;99.90;;;;;;2075663;28;20026;-66
2024/02/17 01:39:25;;;;;;;34.88;26.42;;;12.60;99.90;;;;;;2076043;28;20097;-66
2024/02/17 01:40:25;;;;;;;37.67;28.48;;;12.60;99.90;;;;;;2075321;28;20463;-66
2024/02/17 01:41:26;;;;;;;38.15;27.95;;;12.60;99.90;;;;;;2073778;28;20458;-67
2024/02/17 01:42:26;;;;;;;35.65;26.75;;;12.50;99.90;;;;;;2075294;28;20026;-66
2024/02/17 01:43:27;;;;;;;38.65;28.15;;;12.60;99.90;;;;;;2074327;28;20057;-66
2024/02/17 01:44:28;;;;;;;36.90;27.30;;;12.60;99.90;;;;;;2075732;28;20446;-66
2024/02/17 01:45:28;;;;;;;38.25;26.85;;;12.60;99.90;;;;;;2073393;28;20391;-66
2024/02/17 01:46:29;;;;;;;34.00;26.55;;;12.60;99.90;;;;;;2073870;28;20037;-66
2024/02/17 01:47:30;;;;;;;32.42;26.65;;;12.60;99.90;;;;;;2076366;28;20030;-66
2024/02/17 01:48:30;;;;;;;37.33;27.13;;;12.60;99.90;;;;;;2074507;28;20034;-67
2024/02/17 01:49:32;;;;;;;35.67;27.15;;;12.60;99.90;;;;;;2076187;28;20502;-66
2024/02/17 01:50:33;;;;;;;36.47;26.25;;;12.60;99.90;;;;;;2077408;28;20029;-67
2024/02/17 01:51:35;;;;;;;36.22;26.20;;;12.60;99.90;;;;;;2074299;28;20029;-66
2024/02/17 01:52:37;;;;;;;38.75;26.80;;;12.60;99.90;;;;;;2074657;28;20021;-66
2024/02/17 01:53:40;;;;;;;30.95;24.35;;;12.60;99.90;;;;;;2074170;28;20057;-66
2024/02/17 01:54:41;;;;;;;32.35;24.55;;;12.60;99.90;;;;;;2073900;28;20112;-66
2024/02/17 01:55:42;;;;;;;35.58;26.02;;;12.50;99.90;;;;;;2075969;28;20026;-67
2024/02/17 01:56:44;;;;;;;33.30;25.08;;;12.50;99.90;;;;;;2073711;28;20018;-66
2024/02/17 01:57:46;;;;;;;33.70;25.67;;;12.50;99.90;;;;;;2074513;28;20553;-67
2024/02/17 01:58:48;;;;;;;34.00;24.42;;;12.50;99.90;;;;;;2077317;28;20021;-65
2024/02/17 01:59:49;;;;;;;33.72;25.33;;;12.50;99.90;;;;;;2075207;28;20052;-66
2024/02/17 02:00:50;;;;;;;37.35;26.63;;;12.50;99.90;;;;;;2074987;28;20409;-66
2024/02/17 02:01:51;;;;;;;34.85;25.17;;;12.60;99.90;;;;;;2076562;28;20030;-66
2024/02/17 02:02:53;;;;;;;34.42;24.50;;;12.60;99.90;;;;;;2073247;28;20947;-66
2024/02/17 02:03:54;;;;;;;38.22;26.23;;;12.60;99.90;;;;;;2075973;28;20116;-66
2024/02/17 02:04:55;;;;;;;35.80;26.02;;;12.60;99.90;;;;;;2065997;28;20022;-66
2024/02/17 02:05:56;;;;;;;31.77;25.13;;;12.60;99.90;;;;;;2066569;28;20164;-65
2024/02/17 02:06:57;;;;;;;36.95;24.40;;;12.60;99.90;;;;;;2074978;28;20029;-67
2024/02/17 02:07:58;;;;;;;31.65;23.42;;;12.60;99.90;;;;;;2076141;28;20032;-66
2024/02/17 02:08:58;;;;;;;33.03;23.35;;;12.50;99.90;;;;;;2075502;28;20025;-66
2024/02/17 02:09:59;;;;;;;38.08;25.95;;;12.50;99.90;;;;;;2076034;28;20108;-66
2024/02/17 02:11:02;;;;;;;31.90;25.25;;;12.50;99.90;;;;;;2074962;28;20393;-67
2024/02/17 02:12:03;;;;;;;34.33;25.25;;;12.50;99.90;;;;;;2068167;28;20080;-66
2024/02/17 02:13:03;;;;;;;33.80;23.65;;;12.50;99.90;;;;;;2068426;28;21576;-66
2024/02/17 02:14:14;;;;;;;33.80;23.65;;;12.50;99.90;;;;;;2077260;28;20018;-66
2024/02/17 02:15:15;;;;;;;35.92;24.75;;;12.50;99.90;;;;;;2074035;28;20100;-66
2024/02/17 02:16:17;;;;;;;34.75;24.30;;;12.50;99.90;;;;;;2074486;28;20071;-67
2024/02/17 02:17:18;;;;;;;34.55;23.42;;;12.50;99.90;;;;;;2078334;28;20033;-67
2024/02/17 02:18:18;;;;;;;34.20;24.67;;;12.50;99.90;;;;;;2075461;28;20121;-66
2024/02/17 02:19:19;;;;;;;30.45;23.38;;;12.40;99.90;;;;;;2077867;28;20075;-66
2024/02/17 02:20:21;;;;;;;28.40;23.58;;;12.40;99.90;;;;;;2073637;28;20037;-67
2024/02/17 02:21:21;;;;;;;34.92;24.67;;;12.40;99.90;;;;;;2076602;28;20411;-67
2024/02/17 02:22:22;;;;;;;37.78;25.10;;;12.40;99.90;;;;;;2079969;28;20051;-66
2024/02/17 02:23:22;;;;;;;33.30;23.48;;;12.40;99.90;;;;;;2076994;28;20049;-66
2024/02/17 02:24:23;;;;;;;32.10;24.23;;;12.40;99.90;;;;;;2078307;28;20021;-66
2024/02/17 02:25:25;;;;;;;33.10;25.70;;;12.40;99.90;;;;;;2075889;28;20037;-66
2024/02/17 02:26:25;;;;;;;32.17;24.17;;;12.40;99.90;;;;;;2078734;28;20100;-66
2024/02/17 02:27:26;;;;;;;32.67;23.73;;;12.40;99.90;;;;;;2075861;28;20479;-66
2024/02/17 02:28:27;;;;;;;37.03;24.42;;;12.40;99.90;;;;;;2078942;28;20470;-66
2024/02/17 02:29:27;;;;;;;37.53;23.77;;;12.40;99.90;;;;;;2079373;28;20350;-66
2024/02/17 02:30:28;;;;;;;34.95;24.17;;;12.40;99.90;;;;;;2076334;28;20048;-67
2024/02/17 02:31:32;;;;;;;28.08;20.70;;;12.40;99.90;;;;;;2068196;28;20560;-66
2024/02/17 02:32:32;;;;;;;30.38;23.98;;;12.40;99.90;;;;;;2068735;28;20017;-66
2024/02/17 02:33:32;;;;;;;31.15;24.48;;;12.40;99.90;;;;;;2075237;28;20076;-66
2024/02/17 02:34:33;;;;;;;31.98;23.17;;;12.40;99.90;;;;;;2078709;28;20026;-66
2024/02/17 02:35:33;;;;;;;36.38;24.60;;;12.40;99.90;;;;;;2077458;28;20032;-67
2024/02/17 02:36:34;;;;;;;31.52;23.52;;;12.40;99.90;;;;;;2078810;28;20458;-67
2024/02/17 02:37:35;;;;;;;31.73;23.42;;;12.40;99.90;;;;;;2077763;28;20422;-65
2024/02/17 02:38:37;;;;;;;27.55;21.95;;;12.40;99.90;;;;;;2077412;28;20084;-66
2024/02/17 02:39:37;;;;;;;33.83;23.10;;;12.40;99.90;;;;;;2076135;28;20496;-66
2024/02/17 02:40:38;;;;;;;32.17;23.10;;;12.40;99.90;;;;;;2076981;28;20390;-67
2024/02/17 02:41:38;;;;;;;32.55;23.88;;;12.40;99.90;;;;;;2075848;28;20055;-66
2024/02/17 02:42:39;;;;;;;32.10;23.02;;;12.40;99.90;;;;;;2071829;28;20117;-67
2024/02/17 02:43:40;;;;;;;32.47;24.15;;;12.40;99.90;;;;;;2069933;28;21107;-66
2024/02/17 02:44:40;;;;;;;31.95;22.83;;;12.40;99.90;;;;;;2077428;28;20025;-66
2024/02/17 02:45:41;;;;;;;32.33;23.50;;;12.40;99.90;;;;;;2074820;28;20036;-66
2024/02/17 02:46:42;;;;;;;30.27;22.48;;;12.40;99.90;;;;;;2077689;28;20021;-66
2024/02/17 02:47:42;;;;;;;30.08;21.70;;;12.40;99.90;;;;;;2076780;28;20037;-67
2024/02/17 02:48:43;;;;;;;31.90;22.58;;;12.40;99.90;;;;;;2077082;28;20033;-66
2024/02/17 02:49:44;;;;;;;30.67;22.60;;;12.40;99.90;;;;;;2078285;28;20514;-66
2024/02/17 02:50:44;;;;;;;30.88;22.83;;;12.40;99.90;;;;;;2076025;28;20025;-66
2024/02/17 02:51:45;;;;;;;32.15;22.02;;;12.40;99.90;;;;;;2077187;28;20025;-66
2024/02/17 02:52:45;;;;;;;31.33;23.38;;;12.40;99.90;;;;;;2075069;28;20022;-66
2024/02/17 02:53:46;;;;;;;30.13;22.67;;;12.40;99.90;;;;;;2076459;28;20049;-66
2024/02/17 02:54:46;;;;;;;32.30;22.40;;;12.40;99.90;;;;;;2074477;28;20034;-66
2024/02/17 02:55:47;;;;;;;29.70;22.33;;;12.40;99.90;;;;;;2077581;28;20523;-67
2024/02/17 02:56:48;;;;;;;36.83;22.85;;;12.40;99.90;;;;;;2077618;28;20390;-66
2024/02/17 02:57:48;;;;;;;26.35;21.85;;;12.40;99.90;;;;;;2077569;28;20033;-67
2024/02/17 02:58:49;;;;;;;31.73;23.00;;;12.40;99.90;;;;;;2075617;28;20030;-65
2024/02/17 02:59:50;;;;;;;34.90;23.23;;;12.40;99.90;;;;;;2078412;28;20033;-66
2024/02/17 03:00:50;;;;;;;28.65;22.35;;;12.40;99.90;;;;;;2076550;28;20052;-66
2024/02/17 03:01:51;;;;;;;31.50;23.25;;;12.30;99.90;;;;;;2076045;28;20064;-66
2024/02/17 03:02:52;;;;;;;32.58;22.98;;;12.30;99.90;;;;;;2078373;28;20056;-66
2024/02/17 03:03:52;;;;;;;31.10;23.58;;;12.30;99.90;;;;;;2076999;28;20373;-67
2024/02/17 03:04:54;;;;;;;39.95;24.75;;;12.30;99.90;;;;;;2076578;28;20033;-66
2024/02/17 03:05:54;;;;;;;34.95;24.23;;;12.40;99.90;;;;;;2076159;28;20118;-66
2024/02/17 03:06:55;;;;;;;32.33;24.17;;;12.40;99.90;;;;;;2076293;28;20041;-67
2024/02/17 03:07:55;;;;;;;34.03;24.48;;;12.40;99.90;;;;;;2075216;28;20809;-67
2024/02/17 03:08:56;;;;;;;30.35;23.38;;;12.30;99.90;;;;;;2074201;28;20040;-67
2024/02/17 03:09:57;;;;;;;34.45;22.27;;;12.30;99.90;;;;;;2076539;28;20026;-66
2024/02/17 03:10:57;;;;;;;30.38;23.70;;;12.30;99.90;;;;;;2076276;28;20052;-66
2024/02/17 03:11:58;;;;;;;29.20;23.65;;;12.30;99.90;;;;;;2076804;28;20030;-66
2024/02/17 03:12:59;;;;;;;34.10;23.83;;;12.30;99.90;;;;;;2077778;28;20030;-66
2024/02/17 03:13:59;;;;;;;32.40;24.55;;;12.40;99.90;;;;;;2075978;28;20025;-67
2024/02/17 03:15:02;;;;;;;32.40;22.42;;;12.30;99.90;;;;;;2077883;28;20056;-66
2024/02/17 03:16:04;;;;;;;35.22;24.05;;;12.40;99.90;;;;;;2076795;28;20507;-66
2024/02/17 03:17:05;;;;;;;33.53;23.27;;;12.30;99.90;;;;;;2077572;28;20092;-66
2024/02/17 03:18:06;;;;;;;32.08;23.35;;;12.30;99.90;;;;;;2077689;28;20072;-66
2024/02/17 03:19:07;;;;;;;33.03;23.20;;;12.30;99.90;;;;;;2076322;28;20351;-66
2024/02/17 03:20:07;;;;;;;33.35;23.58;;;12.30;99.90;;;;;;2076876;28;20075;-66
2024/02/17 03:21:08;;;;;;;32.95;24.15;;;12.30;99.90;;;;;;2076325;28;20104;-66
2024/02/17 03:22:09;;;;;;;27.80;21.65;;;12.30;99.90;;;;;;2075308;28;20025;-66
2024/02/17 03:23:09;;;;;;;28.55;22.55;;;12.30;99.90;;;;;;2076190;28;20030;-66
2024/02/17 03:24:10;;;;;;;31.33;23.02;;;12.30;99.90;;;;;;2076833;28;20033;-67
2024/02/17 03:25:11;;;;;;;31.92;22.52;;;12.30;99.90;;;;;;2074958;28;20030;-66
2024/02/17 03:26:12;;;;;;;31.83;23.23;;;12.30;99.90;;;;;;2077190;28;20030;-71
2024/02/17 03:27:13;;;;;;;32.13;22.85;;;12.30;99.90;;;;;;2075477;28;20108;-71
2024/02/17 03:28:13;;;;;;;27.55;22.48;;;12.30;99.90;;;;;;2076918;28;20017;-71
2024/02/17 03:29:14;;;;;;;32.50;23.98;;;12.30;99.90;;;;;;2077201;28;20022;-71
2024/02/17 03:30:14;;;;;;;34.30;23.40;;;12.30;99.90;;;;;;2072644;28;20438;-71
2024/02/17 03:31:15;;;;;;;34.33;23.33;;;12.30;99.90;;;;;;2072975;28;20085;-70
2024/02/17 03:32:16;;;;;;;34.58;23.30;;;12.30;99.90;;;;;;2076541;28;20494;-71
2024/02/17 03:33:16;;;;;;;33.10;23.00;;;12.30;99.90;;;;;;2075302;28;20029;-71
2024/02/17 03:34:17;;;;;;;35.30;23.33;;;12.30;99.90;;;;;;2078470;28;20068;-71
2024/02/17 03:35:17;;;;;;;34.38;23.50;;;12.30;99.90;;;;;;2076742;28;20477;-71
2024/02/17 03:36:19;;;;;;;34.60;22.63;;;12.30;99.90;;;;;;2076111;28;20102;-70
2024/02/17 03:37:21;;;;;;;30.38;23.20;;;12.30;99.90;;;;;;2077020;28;20038;-71
2024/02/17 03:38:21;;;;;;;33.75;24.58;;;12.30;99.90;;;;;;2077532;28;20022;-71
2024/02/17 03:39:22;;;;;;;36.50;24.52;;;12.30;99.90;;;;;;2078327;28;20382;-71
2024/02/17 03:40:23;;;;;;;33.72;23.20;;;12.20;99.90;;;;;;2079940;28;20385;-71
2024/02/17 03:41:23;;;;;;;33.42;23.70;;;12.20;99.90;;;;;;2077128;28;20037;-71
2024/02/17 03:42:27;;;;;;;35.45;23.75;;;12.20;99.90;;;;;;2069839;28;20525;-70
2024/02/17 03:43:28;;;;;;;37.42;25.15;;;12.20;99.90;;;;;;2072217;28;20136;-71
2024/02/17 03:44:29;;;;;;;34.08;24.52;;;12.20;99.90;;;;;;2076466;28;20026;-71
2024/02/17 03:45:30;;;;;;;36.08;24.35;;;12.20;99.90;;;;;;2076620;28;20033;-71
2024/02/17 03:46:31;;;;;;;35.67;23.98;;;12.20;99.90;;;;;;2078273;28;20426;-71
2024/02/17 03:47:31;;;;;;;31.90;23.00;;;12.20;99.90;;;;;;2075499;28;20022;-71
2024/02/17 03:48:32;;;;;;;35.17;24.58;;;12.20;99.90;;;;;;2077191;28;20486;-71
2024/02/17 03:49:33;;;;;;;40.13;25.27;;;12.20;99.90;;;;;;2076178;28;20026;-71
2024/02/17 03:50:34;;;;;;;32.50;23.80;;;12.20;99.90;;;;;;2076619;28;20025;-70
2024/02/17 03:51:34;;;;;;;36.10;24.35;;;12.20;99.90;;;;;;2076471;28;20037;-71
2024/02/17 03:52:35;;;;;;;35.25;24.50;;;12.20;99.90;;;;;;2075485;28;20030;-71
2024/02/17 03:53:35;;;;;;;36.15;25.55;;;12.20;99.90;;;;;;2075320;28;20075;-70
2024/02/17 03:54:36;;;;;;;37.97;25.42;;;12.20;99.90;;;;;;2077461;28;20847;-71
2024/02/17 03:55:36;;;;;;;32.83;24.90;;;12.20;99.90;;;;;;2075574;28;20022;-71
2024/02/17 03:56:37;;;;;;;37.38;25.75;;;12.20;99.90;;;;;;2076919;28;20030;-69
2024/02/17 03:57:38;;;;;;;38.67;24.90;;;12.20;99.90;;;;;;2076596;28;20025;-71
2024/02/17 03:58:39;;;;;;;32.60;24.77;;;12.20;99.90;;;;;;2075682;28;20040;-71
2024/02/17 03:59:39;;;;;;;34.55;24.25;;;12.20;99.90;;;;;;2077875;28;20039;-70
2024/02/17 04:00:40;;;;;;;36.90;24.92;;;12.20;99.90;;;;;;2068288;28;20022;-71
2024/02/17 04:01:40;;;;;;;36.90;25.70;;;12.10;99.90;;;;;;2067701;28;20034;-69
2024/02/17 04:02:41;;;;;;;36.28;26.17;;;12.10;99.90;;;;;;2076374;28;20057;-71
2024/02/17 04:03:42;;;;;;;35.50;25.70;;;12.10;99.90;;;;;;2075946;28;20042;-71
2024/02/17 04:04:42;;;;;;;34.75;25.58;;;12.10;99.90;;;;;;2075940;28;20403;-71
2024/02/17 04:05:43;;;;;;;41.30;25.45;;;12.10;99.90;;;;;;2075385;28;20112;-71
2024/02/17 04:06:44;;;;;;;35.50;25.17;;;12.10;99.90;;;;;;2075292;28;20048;-71
2024/02/17 04:07:44;;;;;;;35.70;24.90;;;12.10;99.90;;;;;;2076972;28;20039;-70
2024/02/17 04:08:45;;;;;;;34.63;25.23;;;12.10;99.90;;;;;;2077026;28;20060;-71
2024/02/17 04:09:45;;;;;;;36.67;25.80;;;12.10;99.90;;;;;;2076819;28;20037;-69
2024/02/17 04:10:46;;;;;;;32.13;24.83;;;12.10;99.90;;;;;;2074252;28;20037;-71
2024/02/17 04:11:46;;;;;;;36.92;24.58;;;12.10;99.90;;;;;;2073820;28;20436;-71
2024/02/17 04:12:47;;;;;;;38.50;25.38;;;12.10;99.90;;;;;;2078390;28;20102;-71
2024/02/17 04:13:48;;;;;;;37.85;25.90;;;12.10;99.90;;;;;;2075672;28;20034;-71
2024/02/17 04:14:48;;;;;;;32.88;23.67;;;12.20;99.90;;;;;;2073500;28;20034;-71
2024/02/17 04:15:49;;;;;;;35.42;24.92;;;12.10;99.90;;;;;;2077293;28;20061;-71
2024/02/17 04:16:49;;;;;;;33.83;24.13;;;12.20;99.90;;;;;;2074064;28;20046;-70
2024/02/17 04:17:50;;;;;;;36.60;24.67;;;12.10;99.90;;;;;;2076086;28;20022;-71
2024/02/17 04:18:51;;;;;;;41.67;25.95;;;12.10;99.90;;;;;;2075748;28;20382;-71
2024/02/17 04:19:51;;;;;;;37.47;26.02;;;12.10;99.90;;;;;;2076108;28;20026;-70
2024/02/17 04:20:52;;;;;;;40.38;27.48;;;12.20;99.90;;;;;;2075735;28;20022;-71
2024/02/17 04:21:53;;;;;;;37.00;27.35;;;12.10;99.90;;;;;;2075172;28;20033;-70
2024/02/17 04:22:53;;;;;;;37.10;25.15;;;12.20;99.90;;;;;;2075378;28;20072;-71
2024/02/17 04:23:54;;;;;;;38.63;25.25;;;12.20;99.90;;;;;;2077609;28;20041;-71
2024/02/17 04:24:55;;;;;;;37.08;24.60;;;12.10;99.90;;;;;;2075518;28;20041;-71
2024/02/17 04:25:56;;;;;;;35.25;24.75;;;12.20;99.90;;;;;;2077523;28;20618;-70
2024/02/17 04:26:57;;;;;;;38.35;25.50;;;12.10;99.90;;;;;;2077112;28;20028;-70
2024/02/17 04:27:59;;;;;;;37.60;24.67;;;12.10;99.90;;;;;;2077496;28;20039;-71
2024/02/17 04:29:00;;;;;;;33.13;24.35;;;12.10;99.90;;;;;;2076558;28;20037;-70
2024/02/17 04:30:00;;;;;;;39.08;25.38;;;12.10;99.90;;;;;;2075171;28;20034;-70
2024/02/17 04:31:02;;;;;;;37.05;24.85;;;12.10;99.90;;;;;;2076069;28;20041;-71
2024/02/17 04:32:02;;;;;;;33.28;24.98;;;12.10;99.90;;;;;;2074957;28;20041;-70
2024/02/17 04:33:03;;;;;;;34.33;24.13;;;12.10;99.90;;;;;;2073427;28;20026;-71
2024/02/17 04:34:03;;;;;;;38.85;25.77;;;12.10;99.90;;;;;;2067011;28;20474;-70
2024/02/17 04:35:05;;;;;;;33.80;25.05;;;12.10;99.90;;;;;;2066965;28;20065;-71
2024/02/17 04:36:06;;;;;;;34.83;24.48;;;12.10;99.90;;;;;;2076243;28;20149;-71
2024/02/17 04:37:06;;;;;;;35.53;24.55;;;12.10;99.90;;;;;;2076434;28;20041;-71
2024/02/17 04:38:07;;;;;;;38.88;25.42;;;12.10;99.90;;;;;;2075617;28;20028;-71
2024/02/17 04:39:10;;;;;;;33.97;23.88;;;12.10;99.90;;;;;;2068170;28;20812;-71
2024/02/17 04:40:12;;;;;;;30.17;23.40;;;12.10;99.90;;;;;;2068624;28;20104;-71
2024/02/17 04:41:13;;;;;;;35.78;24.83;;;12.10;99.90;;;;;;2074915;28;20801;-71
2024/02/17 04:42:13;;;;;;;34.30;23.33;;;12.10;99.90;;;;;;2074785;28;20390;-71
2024/02/17 04:43:14;;;;;;;38.45;23.70;;;12.10;99.90;;;;;;2072944;28;20030;-71
2024/02/17 04:44:14;;;;;;;32.28;23.92;;;12.10;99.90;;;;;;2076864;28;20021;-71
2024/02/17 04:45:15;;;;;;;36.80;24.38;;;12.10;99.90;;;;;;2074721;28;20033;-71
2024/02/17 04:46:16;;;;;;;36.15;23.52;;;12.10;99.90;;;;;;2075856;28;20035;-70
2024/02/17 04:47:17;;;;;;;38.20;24.73;;;12.10;99.90;;;;;;2075538;28;20022;-70
2024/02/17 04:48:18;;;;;;;33.95;23.98;;;12.10;99.90;;;;;;2074757;28;20022;-71
2024/02/17 04:49:18;;;;;;;34.55;24.85;;;12.10;99.90;;;;;;2075284;28;20122;-70
2024/02/17 04:50:19;;;;;;;35.03;24.35;;;12.10;99.90;;;;;;2076425;28;20033;-71
2024/02/17 04:51:19;;;;;;;36.13;24.38;;;12.10;99.90;;;;;;2074686;28;20053;-71
2024/02/17 04:52:20;;;;;;;36.13;25.15;;;12.10;99.90;;;;;;2075807;28;20068;-71
2024/02/17 04:53:20;;;;;;;31.00;23.88;;;12.10;99.90;;;;;;2077867;28;20409;-71
2024/02/17 04:54:21;;;;;;;38.50;24.73;;;12.10;99.90;;;;;;2075989;28;20018;-70
2024/02/17 04:55:23;;;;;;;33.95;24.40;;;12.10;99.90;;;;;;2077143;28;20052;-71
2024/02/17 04:56:23;;;;;;;34.33;23.60;;;12.10;99.90;;;;;;2075924;28;20029;-71
2024/02/17 04:57:24;;;;;;;38.75;25.17;;;12.10;99.90;;;;;;2076410;28;20557;-70
2024/02/17 04:58:24;;;;;;;36.20;24.25;;;12.10;99.90;;;;;;2074550;28;20029;-71
2024/02/17 04:59:25;;;;;;;31.48;23.73;;;12.10;99.90;;;;;;2077230;28;20034;-71
2024/02/17 05:00:26;;;;;;;33.97;23.98;;;12.10;99.90;;;;;;2076784;28;20025;-71
2024/02/17 05:01:26;;;;;;;33.40;23.88;;;12.10;99.90;;;;;;2076949;28;20497;-71
2024/02/17 05:02:27;;;;;;;34.40;24.30;;;12.10;99.90;;;;;;2077121;28;20084;-71
2024/02/17 05:03:27;;;;;;;35.33;24.23;;;12.10;99.90;;;;;;2076977;28;20437;-71
2024/02/17 05:04:28;;;;;;;30.13;23.10;;;12.10;99.90;;;;;;2074118;28;20029;-70
2024/02/17 05:05:28;;;;;;;34.40;23.80;;;12.10;99.90;;;;;;2076328;28;20030;-71
2024/02/17 05:06:29;;;;;;;32.47;22.60;;;12.10;99.90;;;;;;2074144;28;20021;-71
2024/02/17 05:07:29;;;;;;;34.67;24.38;;;12.10;99.90;;;;;;2074879;28;20025;-71
2024/02/17 05:08:30;;;;;;;32.75;23.58;;;12.10;99.90;;;;;;2075762;28;20021;-71